»·PEaware :: AAL554 LXGB-LPMA

AAL554 :: LXGB-LPMA

FLIGHT INFORMATION

Flight Status: Arrived
Operator:
American Airlines
More flights by this operator :: More flights under this callsign
Pilot: Shawn G. (7208)
Aircraft: BOEING 767-300
(B763)
More flights by this aircraft type
Origin: LXGB Gibraltar AB
Gibraltar
Destination: LPMA Madeira
Portugal
More flights between these airports :: More routes between these airports
Route: AMPIR UT100 ORTOP LIDRO LIDR1C
File this flight plan on PilotEdge
Remarks:
Altitude:
(Current/Filed)
38,000ft
Speed:
(Current/Filed)
444kts
Departed: 14-Jul-17 05:20 PM
Arrived: 14-Jul-17 06:59 PM
Distance/Time
Traveled:
602nm/1:39
Distance/Time
To Go:
Arrived

Flight Plot

Page will automatically refresh every two minutes.

Flight plan parsing failed; only flown route is shown


Map Options




Map Legend


Flown Route
Filed Route
Departure Airport
Arrival Airport
Navaid (VOR, NDB)
Fix

Horizontal Profiles

Position Reports

Time Latitude Longitude Heading Altitude Ground
Speed
14-Jul-17 17:02 36.153363 -5.343635 17 18ft 0kts
14-Jul-17 17:03 36.153363 -5.343635 17 18ft 0kts
14-Jul-17 17:04 36.153363 -5.343635 17 18ft 0kts
14-Jul-17 17:05 36.153363 -5.343635 17 18ft 0kts
14-Jul-17 17:06 36.153363 -5.343635 17 18ft 0kts
14-Jul-17 17:07 36.153363 -5.343635 17 18ft 0kts
14-Jul-17 17:08 36.153363 -5.343635 17 18ft 0kts
14-Jul-17 17:09 36.153363 -5.343635 17 18ft 0kts
14-Jul-17 17:10 36.153363 -5.343635 17 18ft 0kts
14-Jul-17 17:11 36.153363 -5.343635 17 18ft 0kts
14-Jul-17 17:12 36.153363 -5.343635 17 18ft 0kts
14-Jul-17 17:13 36.153008 -5.343774 17 18ft 3kts
14-Jul-17 17:14 36.152387 -5.343586 275 18ft 1kts
14-Jul-17 17:15 36.152385 -5.343501 269 18ft 0kts
14-Jul-17 17:16 36.152385 -5.343501 269 18ft 0kts
14-Jul-17 17:17 36.152385 -5.343501 269 18ft 0kts
14-Jul-17 17:18 36.152385 -5.343502 269 18ft 0kts
14-Jul-17 17:19 36.151275 -5.347135 247 18ft 7kts
14-Jul-17 17:20 36.151001 -5.355928 266 11ft 29kts
14-Jul-17 17:21 36.151060 -5.359548 183 11ft 5kts
14-Jul-17 17:22 36.150783 -5.359143 82 11ft 0kts
14-Jul-17 17:23 36.151065 -5.352886 87 16ft 112kts
14-Jul-17 17:24 36.160515 -5.308737 17 2698ft 157kts
14-Jul-17 17:25 36.174484 -5.356909 234 4693ft 245kts
14-Jul-17 17:26 36.139572 -5.434131 244 8951ft 269kts
14-Jul-17 17:27 36.110538 -5.508585 244 11617ft 320kts
14-Jul-17 17:31 35.938159 -5.986886 0 25843ft 0kts
14-Jul-17 17:32 35.935107 -6.100736 268 28157ft 410kts
14-Jul-17 17:33 35.932221 -6.242586 268 30680ft 419kts
14-Jul-17 17:34 35.928831 -6.408037 267 33959ft 409kts
14-Jul-17 17:35 35.925798 -6.546665 267 36250ft 401kts
14-Jul-17 17:36 35.923181 -6.660644 267 37586ft 400kts
14-Jul-17 17:37 35.937508 -6.796771 278 38021ft 407kts
14-Jul-17 17:38 35.959199 -6.938382 278 38072ft 430kts
14-Jul-17 17:39 35.981235 -7.082361 278 38045ft 426kts
14-Jul-17 17:40 36.003042 -7.226041 278 38045ft 427kts
14-Jul-17 17:41 36.021586 -7.370465 268 38034ft 424kts
14-Jul-17 17:42 35.996226 -7.511829 254 38021ft 423kts
14-Jul-17 17:43 35.963964 -7.650978 253 38014ft 422kts
14-Jul-17 17:44 35.957531 -7.789723 278 37963ft 415kts
14-Jul-17 17:45 35.937674 -7.929418 241 38027ft 426kts
14-Jul-17 17:46 35.874888 -8.051332 248 38032ft 423kts
14-Jul-17 17:47 35.836877 -8.187973 253 38021ft 422kts
14-Jul-17 17:48 35.802849 -8.326240 253 38019ft 422kts
14-Jul-17 17:49 35.772239 -8.452364 252 38019ft 428kts
14-Jul-17 17:50 35.772239 -8.452364 252 38019ft 428kts
14-Jul-17 17:53 35.632836 -9.018548 252 38022ft 428kts
14-Jul-17 17:54 35.601024 -9.146065 252 38020ft 428kts
14-Jul-17 17:55 35.566171 -9.285039 252 38019ft 428kts
14-Jul-17 17:56 35.530947 -9.424738 252 38018ft 428kts
14-Jul-17 17:57 35.495658 -9.563925 252 38017ft 428kts
14-Jul-17 17:58 35.460219 -9.702961 251 38024ft 428kts
14-Jul-17 17:59 35.424467 -9.842483 251 38022ft 428kts
14-Jul-17 18:00 35.388688 -9.981347 251 38021ft 429kts
14-Jul-17 18:01 35.352645 -10.120500 251 38020ft 429kts
14-Jul-17 18:02 35.316456 -10.259479 251 38018ft 429kts
14-Jul-17 18:03 35.280178 -10.398114 251 38017ft 429kts
14-Jul-17 18:04 35.243629 -10.537003 251 38016ft 430kts
14-Jul-17 18:05 35.206827 -10.676112 250 38021ft 430kts
14-Jul-17 18:06 35.169914 -10.814917 250 38022ft 431kts
14-Jul-17 18:07 35.132782 -10.953834 250 38020ft 432kts
14-Jul-17 18:08 35.095368 -11.093077 250 38019ft 433kts
14-Jul-17 18:10 35.029543 -11.336336 250 38016ft 433kts
14-Jul-17 18:11 34.982807 -11.507736 0 37987ft 0kts
14-Jul-17 18:13 34.908273 -11.778849 249 37993ft 435kts
14-Jul-17 18:14 34.869759 -11.917910 250 38027ft 435kts
14-Jul-17 18:15 34.830880 -12.057576 250 38025ft 436kts
14-Jul-17 18:16 34.791796 -12.197289 250 38010ft 437kts
14-Jul-17 18:17 34.752714 -12.336283 250 38151ft 434kts
14-Jul-17 18:18 34.713517 -12.474994 250 38154ft 435kts
14-Jul-17 18:19 34.674122 -12.613724 250 38153ft 435kts
14-Jul-17 18:20 34.634561 -12.752343 249 38160ft 436kts
14-Jul-17 18:21 34.594682 -12.891381 249 38159ft 437kts
14-Jul-17 18:22 34.554720 -13.030057 249 38157ft 437kts
14-Jul-17 18:23 34.514432 -13.169175 249 38155ft 438kts
14-Jul-17 18:24 34.473991 -13.308132 249 38154ft 438kts
14-Jul-17 18:25 34.433333 -13.447173 249 38152ft 438kts
14-Jul-17 18:30 34.239225 -14.101844 248 38154ft 440kts
14-Jul-17 18:31 34.201241 -14.228261 248 38152ft 440kts
14-Jul-17 18:32 34.159376 -14.366949 248 38151ft 440kts
14-Jul-17 18:33 34.117334 -14.505583 248 38150ft 440kts
14-Jul-17 18:34 34.074438 -14.646343 248 37591ft 452kts
14-Jul-17 18:35 34.032498 -14.783333 247 37527ft 441kts
14-Jul-17 18:36 33.991832 -14.915687 247 35202ft 402kts
14-Jul-17 18:37 33.952091 -15.044150 247 30220ft 430kts
14-Jul-17 18:38 33.909674 -15.180934 247 28493ft 431kts
14-Jul-17 18:39 33.868223 -15.313924 247 26512ft 423kts
14-Jul-17 18:40 33.827192 -15.444989 247 24579ft 415kts
14-Jul-17 18:41 33.786570 -15.574247 247 22321ft 413kts
14-Jul-17 18:42 33.746318 -15.701732 247 20214ft 406kts
14-Jul-17 18:43 33.707477 -15.824289 247 18308ft 381kts
14-Jul-17 18:44 33.665819 -15.938535 228 16851ft 365kts
14-Jul-17 18:51 33.153420 -16.342032 209 7983ft 265kts
14-Jul-17 18:52 33.090913 -16.389333 209 7016ft 269kts
14-Jul-17 18:53 33.026844 -16.437728 210 5739ft 268kts
14-Jul-17 18:54 32.963668 -16.485362 210 4564ft 274kts
14-Jul-17 18:55 32.906267 -16.535931 219 3754ft 231kts
14-Jul-17 18:56 32.860859 -16.584220 219 3043ft 204kts
14-Jul-17 18:57 32.824066 -16.626617 223 3012ft 185kts
14-Jul-17 18:58 32.791046 -16.665336 226 2384ft 155kts
14-Jul-17 18:59 32.760866 -16.700831 225 1656ft 153kts
14-Jul-17 19:00 32.730812 -16.736000 226 890ft 150kts
14-Jul-17 19:01 32.700885 -16.770843 227 201ft 147kts
14-Jul-17 19:02 32.689229 -16.784014 196 154ft 0kts
14-Jul-17 19:03 32.692835 -16.779879 84 169ft 24kts
14-Jul-17 19:04 32.693273 -16.778083 45 173ft 5kts
14-Jul-17 19:05 32.694334 -16.776179 137 178ft 8kts
14-Jul-17 19:07 32.694140 -16.775975 137 178ft 0kts
14-Jul-17 19:08 32.694140 -16.775975 137 178ft 0kts
14-Jul-17 19:09 32.694140 -16.775975 137 178ft 0kts
14-Jul-17 19:10 32.694140 -16.775975 137 178ft 0kts
14-Jul-17 19:11 32.694140 -16.775975 137 178ft 0kts
14-Jul-17 19:12 32.694140 -16.775975 137 178ft 0kts
14-Jul-17 19:13 32.694140 -16.775975 137 178ft 0kts
14-Jul-17 19:14 32.694140 -16.775975 137 178ft 0kts
14-Jul-17 19:15 32.694140 -16.775975 137 178ft 0kts
14-Jul-17 19:16 32.694140 -16.775975 137 178ft 0kts

Navigation Log

Ident Type
Flight plan parsing failed, navigation log unavailable